KHI weather

Jinnah International Airport
Karachi, Sindh, Pakistan

Public forecast

Using degrees Celsius for public forecast. Weather courtesy of forecast.io.

METAR (pilot weather report)

Retrieved 2019/03/26 15:25 UTC (31 minutes ago):

OPKC 261525Z 26003KT 6000 NSC 28/09 Q1015 NOSIG

TAF (pilot weather forecast)

Forecast is more than 12 hours old.

Retrieved 2019/03/25 06:00 UTC (1 day ago):

TAF OPKC 250330Z 2506/2612 27005G15KT 6000 NSC FM251800 30008KT 4000 HZ SCT030 SCT100 FM260500 25005G15KT 6000 SCT030